Algoa, Arkansas
Current Conditions -  °F | °C
As of 6:56 PM on Monday 26 Jan 2015 (Local Time) from KM19 Reporting Station
Clear Clear  
Wind Chill: 43°   Ceiling: Unl
Heat Index: 45°   Visibility: 10mi
Dew Point: 35°   Wind: 5mph
Humidity: 68%   Direction: 220°SW
Pressure: 29.96"   Gusts: NA
Location:  35.5678°N, 91.2073°W
Report Text: KM19 270056Z AUTO 22004KT 10SM CLR 07/02 A2996 RMK AO2 T00720016 SLP147
Loading
Personal Weather Stations






























Interactive Weather Map New forecast layout! Learn more

10-Day Weather Forecast

Advertisements
Track Severe Weather on mobile